Veles, Macedonia
Current Conditions -  °F | °C
As of 8:30 PM on Thursday 29 Jan 2015 (Local Time) from LWSK Reporting Station
Clear Clear  
Wind Chill: 37°   Ceiling: Unl
Heat Index: 37°   Visibility: 6mi
Dew Point: 34°   Wind: 0mph
Humidity: 87%   Direction: NA
Pressure: 29.65"   Gusts: NA
Location:  41.73°N, 21.78°E
Report Text: LWSK 291830Z 00000KT CAVOK 03/01 Q1004 NOSIG
Loading
Personal Weather Stations






























Interactive Weather Map New forecast layout! Learn more

10-Day Weather Forecast

Advertisements
Track Severe Weather on mobile